sensor_id;sensor_type;location;lat;lon;timestamp;P1;durP1;ratioP1;P2;durP2;ratioP2
22314;SDS011;11325;55.686;37.566;2023-08-31T00:01:08;11.97;;;8.20;;
22314;SDS011;11325;55.686;37.566;2023-08-31T00:03:36;19.82;;;8.93;;
22314;SDS011;11325;55.686;37.566;2023-08-31T00:06:05;18.12;;;8.33;;
22314;SDS011;11325;55.686;37.566;2023-08-31T00:08:35;13.83;;;8.90;;
22314;SDS011;11325;55.686;37.566;2023-08-31T00:11:04;17.32;;;8.35;;
22314;SDS011;11325;55.686;37.566;2023-08-31T00:13:32;14.50;;;8.48;;
22314;SDS011;11325;55.686;37.566;2023-08-31T00:16:00;18.00;;;8.45;;
22314;SDS011;11325;55.686;37.566;2023-08-31T00:18:29;17.82;;;9.25;;
22314;SDS011;11325;55.686;37.566;2023-08-31T00:20:57;14.60;;;8.88;;
22314;SDS011;11325;55.686;37.566;2023-08-31T00:23:25;16.27;;;8.73;;
22314;SDS011;11325;55.686;37.566;2023-08-31T00:25:53;16.82;;;8.63;;
22314;SDS011;11325;55.686;37.566;2023-08-31T00:28:22;17.50;;;9.03;;
22314;SDS011;11325;55.686;37.566;2023-08-31T00:30:52;14.50;;;8.60;;
22314;SDS011;11325;55.686;37.566;2023-08-31T00:33:20;17.70;;;8.98;;
22314;SDS011;11325;55.686;37.566;2023-08-31T00:35:48;12.70;;;8.45;;
22314;SDS011;11325;55.686;37.566;2023-08-31T00:38:16;20.17;;;8.28;;
22314;SDS011;11325;55.686;37.566;2023-08-31T00:40:44;19.45;;;8.93;;
22314;SDS011;11325;55.686;37.566;2023-08-31T00:43:13;13.25;;;8.68;;
22314;SDS011;11325;55.686;37.566;2023-08-31T00:45:46;19.17;;;9.25;;
22314;SDS011;11325;55.686;37.566;2023-08-31T00:48:15;15.98;;;8.28;;
22314;SDS011;11325;55.686;37.566;2023-08-31T00:50:46;18.05;;;9.83;;
22314;SDS011;11325;55.686;37.566;2023-08-31T00:53:15;13.45;;;8.08;;
22314;SDS011;11325;55.686;37.566;2023-08-31T00:55:48;19.20;;;9.53;;
22314;SDS011;11325;55.686;37.566;2023-08-31T00:58:17;15.95;;;8.90;;
22314;SDS011;11325;55.686;37.566;2023-08-31T01:03:21;18.50;;;9.20;;
22314;SDS011;11325;55.686;37.566;2023-08-31T01:06:07;17.50;;;8.63;;
22314;SDS011;11325;55.686;37.566;2023-08-31T01:08:50;16.45;;;8.93;;
22314;SDS011;11325;55.686;37.566;2023-08-31T01:11:31;19.75;;;8.60;;
22314;SDS011;11325;55.686;37.566;2023-08-31T01:14:02;19.98;;;9.30;;
22314;SDS011;11325;55.686;37.566;2023-08-31T01:16:32;19.95;;;8.65;;
22314;SDS011;11325;55.686;37.566;2023-08-31T01:19:03;14.87;;;8.95;;
22314;SDS011;11325;55.686;37.566;2023-08-31T01:21:33;24.02;;;9.13;;
22314;SDS011;11325;55.686;37.566;2023-08-31T01:24:02;15.20;;;8.43;;
22314;SDS011;11325;55.686;37.566;2023-08-31T01:26:31;16.42;;;9.43;;
22314;SDS011;11325;55.686;37.566;2023-08-31T01:29:00;16.35;;;9.10;;
22314;SDS011;11325;55.686;37.566;2023-08-31T01:31:28;20.52;;;10.38;;
22314;SDS011;11325;55.686;37.566;2023-08-31T01:33:56;19.65;;;9.98;;
22314;SDS011;11325;55.686;37.566;2023-08-31T01:36:28;24.15;;;9.95;;
22314;SDS011;11325;55.686;37.566;2023-08-31T01:38:58;27.85;;;11.65;;
22314;SDS011;11325;55.686;37.566;2023-08-31T01:41:26;19.35;;;11.55;;
22314;SDS011;11325;55.686;37.566;2023-08-31T01:43:55;27.48;;;11.63;;
22314;SDS011;11325;55.686;37.566;2023-08-31T01:46:24;21.52;;;11.57;;
22314;SDS011;11325;55.686;37.566;2023-08-31T01:48:52;24.50;;;13.03;;
22314;SDS011;11325;55.686;37.566;2023-08-31T01:51:20;27.50;;;13.58;;
22314;SDS011;11325;55.686;37.566;2023-08-31T01:53:49;29.15;;;13.75;;
22314;SDS011;11325;55.686;37.566;2023-08-31T01:56:17;31.77;;;13.80;;
22314;SDS011;11325;55.686;37.566;2023-08-31T01:58:45;22.40;;;12.55;;
22314;SDS011;11325;55.686;37.566;2023-08-31T02:01:14;21.35;;;13.03;;
22314;SDS011;11325;55.686;37.566;2023-08-31T02:03:42;26.57;;;13.22;;
22314;SDS011;11325;55.686;37.566;2023-08-31T02:06:10;25.23;;;13.62;;
22314;SDS011;11325;55.686;37.566;2023-08-31T02:08:38;29.20;;;12.95;;
22314;SDS011;11325;55.686;37.566;2023-08-31T02:11:06;22.32;;;12.75;;
22314;SDS011;11325;55.686;37.566;2023-08-31T02:13:36;25.25;;;13.22;;
22314;SDS011;11325;55.686;37.566;2023-08-31T02:16:04;25.00;;;13.30;;
22314;SDS011;11325;55.686;37.566;2023-08-31T02:18:32;25.02;;;12.65;;
22314;SDS011;11325;55.686;37.566;2023-08-31T02:21:00;24.65;;;12.50;;
22314;SDS011;11325;55.686;37.566;2023-08-31T02:23:30;26.00;;;13.00;;
22314;SDS011;11325;55.686;37.566;2023-08-31T02:25:58;30.65;;;11.73;;
22314;SDS011;11325;55.686;37.566;2023-08-31T02:28:26;25.37;;;12.37;;
22314;SDS011;11325;55.686;37.566;2023-08-31T02:30:58;26.42;;;11.65;;
22314;SDS011;11325;55.686;37.566;2023-08-31T02:33:26;24.72;;;10.98;;
22314;SDS011;11325;55.686;37.566;2023-08-31T02:35:55;23.42;;;11.90;;
22314;SDS011;11325;55.686;37.566;2023-08-31T02:38:23;32.20;;;11.63;;
22314;SDS011;11325;55.686;37.566;2023-08-31T02:40:51;17.90;;;10.55;;
22314;SDS011;11325;55.686;37.566;2023-08-31T02:43:19;23.98;;;11.40;;
22314;SDS011;11325;55.686;37.566;2023-08-31T02:45:48;22.80;;;11.48;;
22314;SDS011;11325;55.686;37.566;2023-08-31T02:48:18;18.80;;;10.58;;
22314;SDS011;11325;55.686;37.566;2023-08-31T02:50:46;18.48;;;10.15;;
22314;SDS011;11325;55.686;37.566;2023-08-31T02:53:14;20.23;;;9.95;;
22314;SDS011;11325;55.686;37.566;2023-08-31T02:55:42;21.15;;;11.38;;
22314;SDS011;11325;55.686;37.566;2023-08-31T02:58:10;19.62;;;10.45;;
22314;SDS011;11325;55.686;37.566;2023-08-31T03:00:38;21.82;;;10.48;;
22314;SDS011;11325;55.686;37.566;2023-08-31T03:03:08;18.70;;;10.45;;
22314;SDS011;11325;55.686;37.566;2023-08-31T03:05:36;18.15;;;10.38;;
22314;SDS011;11325;55.686;37.566;2023-08-31T03:08:04;19.30;;;10.00;;
22314;SDS011;11325;55.686;37.566;2023-08-31T03:10:33;19.52;;;10.68;;
22314;SDS011;11325;55.686;37.566;2023-08-31T03:13:01;19.73;;;9.85;;
22314;SDS011;11325;55.686;37.566;2023-08-31T03:15:29;17.52;;;9.48;;
22314;SDS011;11325;55.686;37.566;2023-08-31T03:17:57;23.73;;;10.78;;
22314;SDS011;11325;55.686;37.566;2023-08-31T03:20:25;17.20;;;9.05;;
22314;SDS011;11325;55.686;37.566;2023-08-31T03:22:53;28.62;;;10.93;;
22314;SDS011;11325;55.686;37.566;2023-08-31T03:25:22;21.68;;;10.35;;
22314;SDS011;11325;55.686;37.566;2023-08-31T03:27:51;16.67;;;9.90;;
22314;SDS011;11325;55.686;37.566;2023-08-31T03:30:20;22.13;;;9.93;;
22314;SDS011;11325;55.686;37.566;2023-08-31T03:32:49;19.95;;;10.32;;
22314;SDS011;11325;55.686;37.566;2023-08-31T03:35:17;21.97;;;9.43;;
22314;SDS011;11325;55.686;37.566;2023-08-31T03:37:49;18.87;;;10.95;;
22314;SDS011;11325;55.686;37.566;2023-08-31T03:40:18;22.10;;;9.88;;
22314;SDS011;11325;55.686;37.566;2023-08-31T03:42:49;15.18;;;10.03;;
22314;SDS011;11325;55.686;37.566;2023-08-31T03:45:17;19.85;;;10.05;;
22314;SDS011;11325;55.686;37.566;2023-08-31T03:47:46;20.02;;;10.20;;
22314;SDS011;11325;55.686;37.566;2023-08-31T03:50:15;23.67;;;10.38;;
22314;SDS011;11325;55.686;37.566;2023-08-31T03:52:44;22.52;;;9.83;;
22314;SDS011;11325;55.686;37.566;2023-08-31T03:55:12;19.52;;;9.88;;
22314;SDS011;11325;55.686;37.566;2023-08-31T03:57:41;19.32;;;9.30;;
22314;SDS011;11325;55.686;37.566;2023-08-31T04:00:10;23.35;;;9.75;;
22314;SDS011;11325;55.686;37.566;2023-08-31T04:02:42;28.42;;;9.73;;
22314;SDS011;11325;55.686;37.566;2023-08-31T04:05:12;18.75;;;9.65;;
22314;SDS011;11325;55.686;37.566;2023-08-31T04:07:42;28.55;;;10.72;;
22314;SDS011;11325;55.686;37.566;2023-08-31T04:10:11;25.02;;;10.05;;
22314;SDS011;11325;55.686;37.566;2023-08-31T04:12:39;28.15;;;10.85;;
22314;SDS011;11325;55.686;37.566;2023-08-31T04:15:10;23.18;;;10.68;;
22314;SDS011;11325;55.686;37.566;2023-08-31T04:17:39;22.80;;;11.65;;
22314;SDS011;11325;55.686;37.566;2023-08-31T04:20:08;19.95;;;10.85;;
22314;SDS011;11325;55.686;37.566;2023-08-31T04:22:37;23.32;;;11.05;;
22314;SDS011;11325;55.686;37.566;2023-08-31T04:25:06;22.73;;;10.98;;
22314;SDS011;11325;55.686;37.566;2023-08-31T04:27:35;19.82;;;10.20;;
22314;SDS011;11325;55.686;37.566;2023-08-31T04:30:06;19.50;;;11.03;;
22314;SDS011;11325;55.686;37.566;2023-08-31T04:32:35;21.12;;;10.43;;
22314;SDS011;11325;55.686;37.566;2023-08-31T04:35:04;23.57;;;11.30;;
22314;SDS011;11325;55.686;37.566;2023-08-31T04:37:33;16.12;;;10.50;;
22314;SDS011;11325;55.686;37.566;2023-08-31T04:40:02;39.15;;;11.43;;
22314;SDS011;11325;55.686;37.566;2023-08-31T04:42:32;23.25;;;11.15;;
22314;SDS011;11325;55.686;37.566;2023-08-31T04:45:02;18.95;;;11.15;;
22314;SDS011;11325;55.686;37.566;2023-08-31T04:47:31;24.10;;;11.53;;
22314;SDS011;11325;55.686;37.566;2023-08-31T04:50:00;27.45;;;12.23;;
22314;SDS011;11325;55.686;37.566;2023-08-31T04:52:30;21.60;;;11.35;;
22314;SDS011;11325;55.686;37.566;2023-08-31T04:55:00;29.00;;;11.60;;
22314;SDS011;11325;55.686;37.566;2023-08-31T04:57:29;26.23;;;11.78;;
22314;SDS011;11325;55.686;37.566;2023-08-31T04:59:58;20.05;;;11.05;;
22314;SDS011;11325;55.686;37.566;2023-08-31T05:02:27;27.05;;;12.53;;
22314;SDS011;11325;55.686;37.566;2023-08-31T05:04:56;24.82;;;11.78;;
22314;SDS011;11325;55.686;37.566;2023-08-31T05:07:25;23.92;;;11.35;;
22314;SDS011;11325;55.686;37.566;2023-08-31T05:09:53;24.52;;;11.43;;
22314;SDS011;11325;55.686;37.566;2023-08-31T05:12:22;23.98;;;11.25;;
22314;SDS011;11325;55.686;37.566;2023-08-31T05:14:51;27.60;;;11.45;;
22314;SDS011;11325;55.686;37.566;2023-08-31T05:17:19;22.80;;;11.65;;
22314;SDS011;11325;55.686;37.566;2023-08-31T05:19:48;28.47;;;12.35;;
22314;SDS011;11325;55.686;37.566;2023-08-31T05:22:18;23.27;;;12.80;;
22314;SDS011;11325;55.686;37.566;2023-08-31T05:24:47;18.62;;;11.60;;
22314;SDS011;11325;55.686;37.566;2023-08-31T05:27:15;28.38;;;12.55;;
22314;SDS011;11325;55.686;37.566;2023-08-31T05:29:44;30.40;;;11.60;;
22314;SDS011;11325;55.686;37.566;2023-08-31T05:32:13;21.25;;;11.38;;
22314;SDS011;11325;55.686;37.566;2023-08-31T05:34:41;19.52;;;11.65;;
22314;SDS011;11325;55.686;37.566;2023-08-31T05:37:10;24.00;;;11.73;;
22314;SDS011;11325;55.686;37.566;2023-08-31T05:39:39;15.85;;;10.53;;
22314;SDS011;11325;55.686;37.566;2023-08-31T05:42:08;24.82;;;12.18;;
22314;SDS011;11325;55.686;37.566;2023-08-31T05:44:37;30.77;;;11.65;;
22314;SDS011;11325;55.686;37.566;2023-08-31T05:47:05;25.48;;;11.28;;
22314;SDS011;11325;55.686;37.566;2023-08-31T05:49:34;26.40;;;10.95;;
22314;SDS011;11325;55.686;37.566;2023-08-31T05:52:03;21.73;;;10.98;;
22314;SDS011;11325;55.686;37.566;2023-08-31T05:54:32;17.52;;;10.75;;
22314;SDS011;11325;55.686;37.566;2023-08-31T05:57:02;24.12;;;9.93;;
22314;SDS011;11325;55.686;37.566;2023-08-31T05:59:31;18.48;;;10.28;;
22314;SDS011;11325;55.686;37.566;2023-08-31T06:02:00;24.12;;;10.78;;
22314;SDS011;11325;55.686;37.566;2023-08-31T06:04:29;22.50;;;10.53;;
22314;SDS011;11325;55.686;37.566;2023-08-31T06:06:58;18.60;;;9.78;;
22314;SDS011;11325;55.686;37.566;2023-08-31T06:09:27;22.93;;;10.75;;
22314;SDS011;11325;55.686;37.566;2023-08-31T06:11:56;22.05;;;8.38;;
22314;SDS011;11325;55.686;37.566;2023-08-31T06:14:25;16.85;;;8.13;;
22314;SDS011;11325;55.686;37.566;2023-08-31T06:16:53;20.85;;;8.78;;
22314;SDS011;11325;55.686;37.566;2023-08-31T06:19:22;22.77;;;8.00;;
22314;SDS011;11325;55.686;37.566;2023-08-31T06:21:51;16.67;;;8.33;;
22314;SDS011;11325;55.686;37.566;2023-08-31T06:24:19;23.07;;;8.95;;
22314;SDS011;11325;55.686;37.566;2023-08-31T06:26:48;18.20;;;9.03;;
22314;SDS011;11325;55.686;37.566;2023-08-31T06:29:17;19.27;;;8.55;;
22314;SDS011;11325;55.686;37.566;2023-08-31T06:31:46;18.40;;;9.28;;
22314;SDS011;11325;55.686;37.566;2023-08-31T06:34:14;18.70;;;8.05;;
22314;SDS011;11325;55.686;37.566;2023-08-31T06:36:43;23.15;;;9.65;;
22314;SDS011;11325;55.686;37.566;2023-08-31T06:39:12;25.90;;;8.93;;
22314;SDS011;11325;55.686;37.566;2023-08-31T06:41:41;30.15;;;8.53;;
22314;SDS011;11325;55.686;37.566;2023-08-31T06:44:10;16.42;;;8.73;;
22314;SDS011;11325;55.686;37.566;2023-08-31T06:46:38;13.90;;;8.05;;
22314;SDS011;11325;55.686;37.566;2023-08-31T06:49:07;16.80;;;8.20;;
22314;SDS011;11325;55.686;37.566;2023-08-31T06:51:36;15.08;;;8.23;;
22314;SDS011;11325;55.686;37.566;2023-08-31T06:54:05;16.62;;;8.13;;
22314;SDS011;11325;55.686;37.566;2023-08-31T06:56:34;18.85;;;8.80;;
22314;SDS011;11325;55.686;37.566;2023-08-31T06:59:03;16.42;;;8.75;;
22314;SDS011;11325;55.686;37.566;2023-08-31T07:01:32;14.73;;;8.25;;
22314;SDS011;11325;55.686;37.566;2023-08-31T07:04:01;16.67;;;8.90;;
22314;SDS011;11325;55.686;37.566;2023-08-31T07:06:33;19.00;;;8.68;;
22314;SDS011;11325;55.686;37.566;2023-08-31T07:09:01;22.02;;;8.65;;
22314;SDS011;11325;55.686;37.566;2023-08-31T07:11:31;12.35;;;8.13;;
22314;SDS011;11325;55.686;37.566;2023-08-31T07:13:59;18.98;;;8.38;;
22314;SDS011;11325;55.686;37.566;2023-08-31T07:16:30;14.83;;;8.15;;
22314;SDS011;11325;55.686;37.566;2023-08-31T07:18:58;22.22;;;7.95;;
22314;SDS011;11325;55.686;37.566;2023-08-31T07:21:27;20.08;;;7.92;;
22314;SDS011;11325;55.686;37.566;2023-08-31T07:23:55;20.15;;;9.15;;
22314;SDS011;11325;55.686;37.566;2023-08-31T07:26:24;15.32;;;8.20;;
22314;SDS011;11325;55.686;37.566;2023-08-31T07:28:53;12.50;;;7.97;;
22314;SDS011;11325;55.686;37.566;2023-08-31T07:31:22;25.43;;;9.25;;
22314;SDS011;11325;55.686;37.566;2023-08-31T07:33:51;18.00;;;8.08;;
22314;SDS011;11325;55.686;37.566;2023-08-31T07:36:20;21.12;;;8.53;;
22314;SDS011;11325;55.686;37.566;2023-08-31T07:38:48;28.32;;;8.53;;
22314;SDS011;11325;55.686;37.566;2023-08-31T07:41:17;16.27;;;8.05;;
22314;SDS011;11325;55.686;37.566;2023-08-31T07:43:46;17.48;;;7.83;;
22314;SDS011;11325;55.686;37.566;2023-08-31T07:46:14;16.40;;;8.03;;
22314;SDS011;11325;55.686;37.566;2023-08-31T07:48:43;18.02;;;8.13;;
22314;SDS011;11325;55.686;37.566;2023-08-31T07:51:12;17.87;;;7.75;;
22314;SDS011;11325;55.686;37.566;2023-08-31T07:53:41;10.80;;;6.53;;
22314;SDS011;11325;55.686;37.566;2023-08-31T07:56:09;17.65;;;7.87;;
22314;SDS011;11325;55.686;37.566;2023-08-31T07:58:38;14.10;;;8.03;;
22314;SDS011;11325;55.686;37.566;2023-08-31T08:01:07;12.25;;;6.97;;
22314;SDS011;11325;55.686;37.566;2023-08-31T08:03:35;12.40;;;7.35;;
22314;SDS011;11325;55.686;37.566;2023-08-31T08:06:04;15.60;;;7.37;;
22314;SDS011;11325;55.686;37.566;2023-08-31T08:08:32;38.70;;;7.87;;
22314;SDS011;11325;55.686;37.566;2023-08-31T08:11:01;18.10;;;7.45;;
22314;SDS011;11325;55.686;37.566;2023-08-31T08:13:30;14.78;;;7.62;;
22314;SDS011;11325;55.686;37.566;2023-08-31T08:15:59;20.95;;;6.35;;
22314;SDS011;11325;55.686;37.566;2023-08-31T08:18:27;10.65;;;6.60;;
22314;SDS011;11325;55.686;37.566;2023-08-31T08:20:56;13.48;;;6.87;;
22314;SDS011;11325;55.686;37.566;2023-08-31T08:23:25;12.80;;;6.72;;
22314;SDS011;11325;55.686;37.566;2023-08-31T08:25:53;11.43;;;6.70;;
22314;SDS011;11325;55.686;37.566;2023-08-31T08:28:22;10.93;;;7.15;;
22314;SDS011;11325;55.686;37.566;2023-08-31T08:30:51;12.43;;;6.58;;
22314;SDS011;11325;55.686;37.566;2023-08-31T08:33:20;13.65;;;6.15;;
22314;SDS011;11325;55.686;37.566;2023-08-31T08:35:48;11.97;;;6.58;;
22314;SDS011;11325;55.686;37.566;2023-08-31T08:38:17;14.83;;;6.28;;
22314;SDS011;11325;55.686;37.566;2023-08-31T08:40:46;17.73;;;6.08;;
22314;SDS011;11325;55.686;37.566;2023-08-31T08:43:15;15.75;;;5.95;;
22314;SDS011;11325;55.686;37.566;2023-08-31T08:45:45;13.95;;;6.28;;
22314;SDS011;11325;55.686;37.566;2023-08-31T08:48:15;15.05;;;6.20;;
22314;SDS011;11325;55.686;37.566;2023-08-31T08:50:43;18.50;;;6.20;;
22314;SDS011;11325;55.686;37.566;2023-08-31T08:53:13;12.73;;;6.33;;
22314;SDS011;11325;55.686;37.566;2023-08-31T08:55:42;12.23;;;5.85;;
22314;SDS011;11325;55.686;37.566;2023-08-31T08:58:14;12.25;;;6.05;;
22314;SDS011;11325;55.686;37.566;2023-08-31T09:00:42;13.10;;;6.22;;
22314;SDS011;11325;55.686;37.566;2023-08-31T09:03:10;12.93;;;6.10;;
22314;SDS011;11325;55.686;37.566;2023-08-31T09:05:38;10.38;;;5.65;;
22314;SDS011;11325;55.686;37.566;2023-08-31T09:08:08;57.45;;;6.78;;
22314;SDS011;11325;55.686;37.566;2023-08-31T09:10:43;12.73;;;5.95;;
22314;SDS011;11325;55.686;37.566;2023-08-31T09:13:12;11.70;;;5.42;;
22314;SDS011;11325;55.686;37.566;2023-08-31T09:15:41;10.13;;;5.42;;
22314;SDS011;11325;55.686;37.566;2023-08-31T09:18:16;9.13;;;5.78;;
22314;SDS011;11325;55.686;37.566;2023-08-31T09:20:44;10.85;;;5.12;;
22314;SDS011;11325;55.686;37.566;2023-08-31T09:23:13;19.73;;;5.45;;
22314;SDS011;11325;55.686;37.566;2023-08-31T09:28:16;13.70;;;5.95;;
22314;SDS011;11325;55.686;37.566;2023-08-31T09:30:50;8.35;;;5.40;;
22314;SDS011;11325;55.686;37.566;2023-08-31T09:33:15;13.05;;;5.90;;
22314;SDS011;11325;55.686;37.566;2023-08-31T09:35:51;8.45;;;5.15;;
22314;SDS011;11325;55.686;37.566;2023-08-31T09:38:19;9.45;;;5.78;;
22314;SDS011;11325;55.686;37.566;2023-08-31T09:40:47;11.48;;;5.83;;
22314;SDS011;11325;55.686;37.566;2023-08-31T09:43:22;10.88;;;5.30;;
22314;SDS011;11325;55.686;37.566;2023-08-31T09:45:51;8.23;;;5.47;;
22314;SDS011;11325;55.686;37.566;2023-08-31T09:48:20;10.80;;;4.92;;
22314;SDS011;11325;55.686;37.566;2023-08-31T09:50:50;13.00;;;6.12;;
22314;SDS011;11325;55.686;37.566;2023-08-31T09:53:19;17.05;;;5.55;;
22314;SDS011;11325;55.686;37.566;2023-08-31T09:55:48;10.03;;;5.25;;
22314;SDS011;11325;55.686;37.566;2023-08-31T09:58:19;13.88;;;5.67;;
22314;SDS011;11325;55.686;37.566;2023-08-31T10:00:49;10.53;;;5.03;;
22314;SDS011;11325;55.686;37.566;2023-08-31T10:03:17;8.70;;;5.00;;
22314;SDS011;11325;55.686;37.566;2023-08-31T10:05:46;9.30;;;4.78;;
22314;SDS011;11325;55.686;37.566;2023-08-31T10:08:15;12.35;;;5.92;;
22314;SDS011;11325;55.686;37.566;2023-08-31T10:10:43;11.60;;;5.25;;
22314;SDS011;11325;55.686;37.566;2023-08-31T10:13:12;10.32;;;4.95;;
22314;SDS011;11325;55.686;37.566;2023-08-31T10:15:41;16.10;;;7.50;;
22314;SDS011;11325;55.686;37.566;2023-08-31T10:18:10;14.73;;;5.62;;
22314;SDS011;11325;55.686;37.566;2023-08-31T10:20:41;13.62;;;6.60;;
22314;SDS011;11325;55.686;37.566;2023-08-31T10:23:08;10.95;;;5.22;;
22314;SDS011;11325;55.686;37.566;2023-08-31T10:28:26;7.12;;;4.83;;
22314;SDS011;11325;55.686;37.566;2023-08-31T10:31:06;9.25;;;5.00;;
22314;SDS011;11325;55.686;37.566;2023-08-31T10:33:44;16.52;;;6.30;;
22314;SDS011;11325;55.686;37.566;2023-08-31T10:36:15;10.03;;;6.40;;
22314;SDS011;11325;55.686;37.566;2023-08-31T10:38:47;7.92;;;5.45;;
22314;SDS011;11325;55.686;37.566;2023-08-31T10:43:49;13.80;;;6.15;;
22314;SDS011;11325;55.686;37.566;2023-08-31T10:46:24;9.05;;;5.35;;
22314;SDS011;11325;55.686;37.566;2023-08-31T10:48:55;11.25;;;5.35;;
22314;SDS011;11325;55.686;37.566;2023-08-31T10:51:29;17.50;;;5.83;;
22314;SDS011;11325;55.686;37.566;2023-08-31T10:54:03;10.15;;;5.83;;
22314;SDS011;11325;55.686;37.566;2023-08-31T10:56:22;9.85;;;5.17;;
22314;SDS011;11325;55.686;37.566;2023-08-31T10:58:58;8.55;;;5.03;;
22314;SDS011;11325;55.686;37.566;2023-08-31T11:02:10;8.23;;;4.42;;
22314;SDS011;11325;55.686;37.566;2023-08-31T11:03:59;12.40;;;5.20;;
22314;SDS011;11325;55.686;37.566;2023-08-31T11:06:28;11.45;;;5.62;;
22314;SDS011;11325;55.686;37.566;2023-08-31T11:08:57;8.65;;;5.10;;
22314;SDS011;11325;55.686;37.566;2023-08-31T11:11:25;11.08;;;5.95;;
22314;SDS011;11325;55.686;37.566;2023-08-31T11:13:56;10.05;;;5.15;;
22314;SDS011;11325;55.686;37.566;2023-08-31T11:16:23;10.95;;;4.85;;
22314;SDS011;11325;55.686;37.566;2023-08-31T11:18:52;9.83;;;5.42;;
22314;SDS011;11325;55.686;37.566;2023-08-31T11:21:21;8.03;;;5.47;;
22314;SDS011;11325;55.686;37.566;2023-08-31T11:23:49;16.17;;;5.97;;
22314;SDS011;11325;55.686;37.566;2023-08-31T11:26:19;15.85;;;5.70;;
22314;SDS011;11325;55.686;37.566;2023-08-31T11:28:47;12.40;;;5.97;;
22314;SDS011;11325;55.686;37.566;2023-08-31T11:31:22;12.33;;;5.83;;
22314;SDS011;11325;55.686;37.566;2023-08-31T11:33:46;8.88;;;4.95;;
22314;SDS011;11325;55.686;37.566;2023-08-31T11:36:16;14.35;;;5.75;;
22314;SDS011;11325;55.686;37.566;2023-08-31T11:38:45;9.25;;;5.55;;
22314;SDS011;11325;55.686;37.566;2023-08-31T11:41:14;11.43;;;5.70;;
22314;SDS011;11325;55.686;37.566;2023-08-31T11:43:42;11.40;;;5.85;;
22314;SDS011;11325;55.686;37.566;2023-08-31T11:46:11;15.50;;;5.45;;
22314;SDS011;11325;55.686;37.566;2023-08-31T11:48:39;13.50;;;6.08;;
22314;SDS011;11325;55.686;37.566;2023-08-31T11:51:08;11.05;;;5.53;;
22314;SDS011;11325;55.686;37.566;2023-08-31T11:53:36;14.30;;;6.08;;
22314;SDS011;11325;55.686;37.566;2023-08-31T11:56:04;10.55;;;5.50;;
22314;SDS011;11325;55.686;37.566;2023-08-31T11:58:32;11.00;;;6.35;;
22314;SDS011;11325;55.686;37.566;2023-08-31T12:01:01;17.10;;;6.05;;
22314;SDS011;11325;55.686;37.566;2023-08-31T12:03:41;11.55;;;5.53;;
22314;SDS011;11325;55.686;37.566;2023-08-31T12:06:00;8.08;;;5.08;;
22314;SDS011;11325;55.686;37.566;2023-08-31T12:08:30;16.45;;;6.12;;
22314;SDS011;11325;55.686;37.566;2023-08-31T12:11:00;14.50;;;5.78;;
22314;SDS011;11325;55.686;37.566;2023-08-31T12:13:29;14.00;;;5.50;;
22314;SDS011;11325;55.686;37.566;2023-08-31T12:15:57;14.80;;;4.83;;
22314;SDS011;11325;55.686;37.566;2023-08-31T12:18:25;14.78;;;6.35;;
22314;SDS011;11325;55.686;37.566;2023-08-31T12:20:55;17.27;;;5.70;;
22314;SDS011;11325;55.686;37.566;2023-08-31T12:23:24;14.47;;;5.50;;
22314;SDS011;11325;55.686;37.566;2023-08-31T12:25:53;11.97;;;5.40;;
22314;SDS011;11325;55.686;37.566;2023-08-31T12:28:22;13.65;;;5.20;;
22314;SDS011;11325;55.686;37.566;2023-08-31T12:30:51;10.25;;;5.37;;
22314;SDS011;11325;55.686;37.566;2023-08-31T12:33:20;9.13;;;5.45;;
22314;SDS011;11325;55.686;37.566;2023-08-31T12:35:48;13.43;;;6.25;;
22314;SDS011;11325;55.686;37.566;2023-08-31T12:38:16;12.80;;;5.58;;
22314;SDS011;11325;55.686;37.566;2023-08-31T12:40:45;11.70;;;5.72;;
22314;SDS011;11325;55.686;37.566;2023-08-31T12:43:14;10.28;;;5.78;;
22314;SDS011;11325;55.686;37.566;2023-08-31T12:45:43;12.40;;;5.53;;
22314;SDS011;11325;55.686;37.566;2023-08-31T12:48:11;6.75;;;4.80;;
22314;SDS011;11325;55.686;37.566;2023-08-31T12:50:39;13.98;;;5.53;;
22314;SDS011;11325;55.686;37.566;2023-08-31T12:53:07;17.90;;;5.30;;
22314;SDS011;11325;55.686;37.566;2023-08-31T12:55:35;10.23;;;5.30;;
22314;SDS011;11325;55.686;37.566;2023-08-31T12:58:04;11.50;;;5.17;;
22314;SDS011;11325;55.686;37.566;2023-08-31T13:00:32;15.78;;;4.97;;
22314;SDS011;11325;55.686;37.566;2023-08-31T13:03:01;13.08;;;5.15;;
22314;SDS011;11325;55.686;37.566;2023-08-31T13:05:30;9.98;;;5.03;;
22314;SDS011;11325;55.686;37.566;2023-08-31T13:07:58;10.05;;;5.30;;
22314;SDS011;11325;55.686;37.566;2023-08-31T13:10:26;11.80;;;5.35;;
22314;SDS011;11325;55.686;37.566;2023-08-31T13:12:54;12.65;;;5.28;;
22314;SDS011;11325;55.686;37.566;2023-08-31T13:15:22;11.50;;;5.55;;
22314;SDS011;11325;55.686;37.566;2023-08-31T13:17:50;11.28;;;5.42;;
22314;SDS011;11325;55.686;37.566;2023-08-31T13:20:18;10.60;;;4.95;;
22314;SDS011;11325;55.686;37.566;2023-08-31T13:22:46;9.53;;;5.20;;
22314;SDS011;11325;55.686;37.566;2023-08-31T13:25:14;10.13;;;4.80;;
22314;SDS011;11325;55.686;37.566;2023-08-31T13:27:45;10.85;;;5.70;;
22314;SDS011;11325;55.686;37.566;2023-08-31T13:30:13;14.55;;;5.42;;
22314;SDS011;11325;55.686;37.566;2023-08-31T13:32:42;10.45;;;5.53;;
22314;SDS011;11325;55.686;37.566;2023-08-31T13:35:11;8.35;;;5.35;;
22314;SDS011;11325;55.686;37.566;2023-08-31T13:37:39;7.50;;;5.20;;
22314;SDS011;11325;55.686;37.566;2023-08-31T13:40:08;9.65;;;5.22;;
22314;SDS011;11325;55.686;37.566;2023-08-31T13:42:36;10.72;;;5.08;;
22314;SDS011;11325;55.686;37.566;2023-08-31T13:45:11;10.10;;;5.20;;
22314;SDS011;11325;55.686;37.566;2023-08-31T13:47:35;16.23;;;5.60;;
22314;SDS011;11325;55.686;37.566;2023-08-31T13:50:04;13.85;;;5.72;;
22314;SDS011;11325;55.686;37.566;2023-08-31T13:52:32;8.68;;;5.08;;
22314;SDS011;11325;55.686;37.566;2023-08-31T13:55:00;13.78;;;5.05;;
22314;SDS011;11325;55.686;37.566;2023-08-31T13:57:30;8.13;;;4.97;;
22314;SDS011;11325;55.686;37.566;2023-08-31T13:59:58;7.75;;;5.47;;
22314;SDS011;11325;55.686;37.566;2023-08-31T14:02:28;9.98;;;5.33;;
22314;SDS011;11325;55.686;37.566;2023-08-31T14:04:56;11.22;;;4.85;;
22314;SDS011;11325;55.686;37.566;2023-08-31T14:07:24;7.87;;;5.33;;
22314;SDS011;11325;55.686;37.566;2023-08-31T14:09:52;13.15;;;5.37;;
22314;SDS011;11325;55.686;37.566;2023-08-31T14:12:20;14.00;;;5.50;;
22314;SDS011;11325;55.686;37.566;2023-08-31T14:14:48;13.43;;;5.45;;
22314;SDS011;11325;55.686;37.566;2023-08-31T14:17:17;12.75;;;5.08;;
22314;SDS011;11325;55.686;37.566;2023-08-31T14:19:45;15.50;;;5.75;;
22314;SDS011;11325;55.686;37.566;2023-08-31T14:22:13;13.13;;;5.17;;
22314;SDS011;11325;55.686;37.566;2023-08-31T14:24:42;8.88;;;5.58;;
22314;SDS011;11325;55.686;37.566;2023-08-31T14:27:10;8.05;;;5.08;;
22314;SDS011;11325;55.686;37.566;2023-08-31T14:29:38;10.98;;;5.05;;
22314;SDS011;11325;55.686;37.566;2023-08-31T14:32:06;10.88;;;5.75;;
22314;SDS011;11325;55.686;37.566;2023-08-31T14:34:34;13.13;;;6.25;;
22314;SDS011;11325;55.686;37.566;2023-08-31T14:37:02;8.65;;;4.95;;
22314;SDS011;11325;55.686;37.566;2023-08-31T14:39:30;9.38;;;5.72;;